Time;durP1;ratioP1;P1;durP2;ratioP2;P2;SDS_P1;SDS_P2;PMS_P1;PMS_P2;Temp;Humidity;BMP_temperature;BMP_pressure;BME280_temperature;BME280_humidity;BME280_pressure;Samples;Min_cycle;Max_cycle;Signal;HPM_P1;HPM_P2
2022/07/08 00:00:01;;;;;;;7.90;2.42;;;;;;;17.35;53.43;100592.41;343129;28;1909;-76
2022/07/08 00:00:14;;;;;;;7.80;2.60;;;;;;;17.35;53.50;100594.19;342933;28;1828;-76
2022/07/08 00:00:26;;;;;;;7.70;2.50;;;;;;;17.34;53.43;100589.84;343783;28;1070;-76
2022/07/08 00:00:38;;;;;;;7.07;2.53;;;;;;;17.35;53.51;100596.81;343793;28;1226;-75
2022/07/08 00:00:51;;;;;;;8.05;2.60;;;;;;;17.35;53.39;100596.81;343537;28;1072;-75
2022/07/08 00:01:04;;;;;;;8.07;2.50;;;;;;;17.37;53.49;100594.97;343444;28;1273;-75
2022/07/08 00:01:16;;;;;;;7.90;2.50;;;;;;;17.33;53.43;100593.41;343854;28;802;-76
2022/07/08 00:01:28;;;;;;;6.93;2.42;;;;;;;17.35;53.59;100595.03;343040;28;2198;-74
2022/07/08 00:01:40;;;;;;;6.20;2.25;;;;;;;17.36;53.39;100599.38;343439;28;1926;-74
2022/07/08 00:01:54;;;;;;;5.75;2.10;;;;;;;17.32;53.66;100592.53;343567;28;1103;-73
2022/07/08 00:02:07;;;;;;;7.03;2.35;;;;;;;17.29;53.53;100594.47;342334;28;1836;-73
2022/07/08 00:02:19;;;;;;;8.70;2.50;;;;;;;17.08;53.64;100597.16;343104;28;1962;-73
2022/07/08 00:02:31;;;;;;;8.00;2.38;;;;;;;17.16;53.87;100596.78;343217;28;1920;-75
2022/07/08 00:02:43;;;;;;;7.45;2.35;;;;;;;17.22;53.65;100593.88;342300;28;1027;-75
2022/07/08 00:02:55;;;;;;;7.03;2.40;;;;;;;17.26;53.46;100591.97;343352;28;1284;-75
2022/07/08 00:03:08;;;;;;;7.15;2.42;;;;;;;17.25;53.49;100593.75;342330;28;2129;-76
2022/07/08 00:03:20;;;;;;;7.32;2.35;;;;;;;17.23;53.81;100597.38;342218;28;1901;-75
2022/07/08 00:03:32;;;;;;;6.82;2.40;;;;;;;17.19;53.94;100598.44;341926;28;1651;-75
2022/07/08 00:03:44;;;;;;;6.80;2.42;;;;;;;17.08;54.39;100594.53;342099;28;1414;-74
2022/07/08 00:03:57;;;;;;;7.45;2.60;;;;;;;17.09;54.21;100600.63;342388;28;1744;-75
2022/07/08 00:04:09;;;;;;;7.72;2.63;;;;;;;17.13;54.06;100600.41;342694;28;1062;-74
2022/07/08 00:04:22;;;;;;;8.05;2.63;;;;;;;17.17;54.01;100604.59;343375;28;2369;-76
2022/07/08 00:04:34;;;;;;;8.40;2.60;;;;;;;17.17;54.26;100604.59;342414;28;1738;-76
2022/07/08 00:04:46;;;;;;;8.88;2.58;;;;;;;17.16;54.13;100602.91;343851;28;1000;-75
2022/07/08 00:04:58;;;;;;;7.65;2.42;;;;;;;17.16;53.84;100609.91;342150;28;2225;-76
2022/07/08 00:05:10;;;;;;;7.82;2.63;;;;;;;17.17;53.66;100598.50;343704;28;1031;-74
2022/07/08 00:05:22;;;;;;;8.98;2.78;;;;;;;17.14;53.66;100599.50;343029;28;2197;-74
2022/07/08 00:05:34;;;;;;;8.15;2.60;;;;;;;17.10;54.13;100597.94;343552;28;1903;-76
2022/07/08 00:05:46;;;;;;;6.43;2.33;;;;;;;17.05;54.45;100594.66;343465;28;2128;-75
2022/07/08 00:05:58;;;;;;;6.38;2.40;;;;;;;17.06;54.39;100596.34;343519;28;1766;-75
2022/07/08 00:06:10;;;;;;;7.63;2.40;;;;;;;17.06;54.24;100606.84;342602;28;2209;-75
2022/07/08 00:06:22;;;;;;;8.75;2.33;;;;;;;17.10;54.60;100602.31;343747;28;1977;-75
2022/07/08 00:06:34;;;;;;;7.20;2.30;;;;;;;17.04;54.95;100597.31;343818;28;1027;-75
2022/07/08 00:06:47;;;;;;;6.28;2.28;;;;;;;17.06;54.87;100598.97;343856;28;1145;-76
2022/07/08 00:06:59;;;;;;;7.75;2.42;;;;;;;17.12;54.73;100595.22;343589;28;1390;-75
2022/07/08 00:07:11;;;;;;;8.68;2.55;;;;;;;16.99;55.25;100600.16;342226;28;1199;-74
2022/07/08 00:07:23;;;;;;;8.40;2.72;;;;;;;16.86;54.81;100605.13;341924;28;2465;-75
2022/07/08 00:07:36;;;;;;;8.02;2.65;;;;;;;16.91;54.78;100597.03;342585;28;1872;-75
2022/07/08 00:07:48;;;;;;;8.17;2.50;;;;;;;17.01;54.73;100603.56;342204;28;1074;-75
2022/07/08 00:08:00;;;;;;;9.15;2.40;;;;;;;17.02;55.04;100600.00;342585;28;1304;-75
2022/07/08 00:08:12;;;;;;;8.00;2.40;;;;;;;17.07;54.61;100602.47;341803;28;976;-75
2022/07/08 00:08:24;;;;;;;7.43;2.20;;;;;;;17.11;54.11;100594.38;341033;28;2259;-75
2022/07/08 00:08:37;;;;;;;7.75;2.28;;;;;;;17.16;54.31;100596.78;342042;28;1988;-75
2022/07/08 00:08:49;;;;;;;11.27;2.50;;;;;;;17.21;53.75;100593.97;342299;28;1308;-73
2022/07/08 00:09:01;;;;;;;11.38;2.60;;;;;;;17.20;53.52;100592.25;340656;29;1935;-75
2022/07/08 00:09:13;;;;;;;8.93;2.42;;;;;;;17.17;53.48;100594.09;340488;29;1890;-75
2022/07/08 00:09:26;;;;;;;7.20;2.22;;;;;;;17.14;53.64;100599.50;340220;29;1227;-75
2022/07/08 00:09:39;;;;;;;7.85;2.33;;;;;;;17.19;53.58;100596.66;339786;29;1775;-76
2022/07/08 00:09:51;;;;;;;8.70;2.30;;;;;;;17.23;53.75;100605.25;340765;28;1221;-75
2022/07/08 00:10:04;;;;;;;8.13;2.35;;;;;;;17.23;53.44;100600.00;340723;29;1315;-75
2022/07/08 00:10:16;;;;;;;7.40;2.50;;;;;;;17.21;53.44;100591.34;341512;28;1379;-76
2022/07/08 00:10:28;;;;;;;8.98;2.58;;;;;;;17.26;53.14;100597.22;340667;28;2136;-75
2022/07/08 00:10:40;;;;;;;8.40;2.55;;;;;;;17.28;53.08;100600.63;341917;28;1257;-76
2022/07/08 00:10:53;;;;;;;8.10;2.22;;;;;;;17.14;53.14;100594.25;341168;28;2264;-73
2022/07/08 00:11:05;;;;;;;6.97;2.08;;;;;;;17.16;53.03;100597.66;340571;29;1798;-75
2022/07/08 00:11:17;;;;;;;8.45;2.10;;;;;;;17.21;53.30;100593.97;340826;29;1071;-75
2022/07/08 00:11:29;;;;;;;8.30;2.35;;;;;;;17.19;53.31;100590.56;341046;28;2249;-75
2022/07/08 00:11:41;;;;;;;8.13;2.40;;;;;;;17.15;53.42;100595.94;342148;28;1988;-75
2022/07/08 00:11:55;;;;;;;7.35;2.28;;;;;;;17.08;53.53;100599.78;341858;28;1881;-75
2022/07/08 00:12:07;;;;;;;7.88;2.30;;;;;;;17.07;53.63;100597.22;341561;28;1148;-75
2022/07/08 00:12:19;;;;;;;7.05;2.45;;;;;;;17.10;53.69;100597.94;341957;28;1327;-76
2022/07/08 00:12:31;;;;;;;7.90;2.60;;;;;;;17.13;53.61;100600.41;341573;28;1849;-75
2022/07/08 00:12:43;;;;;;;7.55;2.53;;;;;;;17.10;53.62;100597.94;341607;28;2185;-75
2022/07/08 00:12:55;;;;;;;6.18;2.08;;;;;;;17.15;53.58;100595.94;341021;28;1282;-76
2022/07/08 00:13:07;;;;;;;5.03;2.10;;;;;;;17.18;53.69;100597.56;341125;28;1521;-75
2022/07/08 00:13:19;;;;;;;4.97;2.15;;;;;;;17.19;53.22;100596.66;340908;28;1627;-75
2022/07/08 00:13:31;;;;;;;8.75;2.33;;;;;;;17.12;53.49;100590.84;341902;28;1911;-75
2022/07/08 00:13:43;;;;;;;11.45;2.63;;;;;;;17.12;53.69;100590.84;341461;28;1590;-75
2022/07/08 00:13:55;;;;;;;11.10;2.70;;;;;;;17.14;53.69;100596.88;341937;28;1956;-76
2022/07/08 00:14:09;;;;;;;9.98;2.55;;;;;;;17.15;53.79;100601.19;342381;28;1136;-75
2022/07/08 00:14:22;;;;;;;9.23;2.50;;;;;;;17.10;54.69;100602.31;343242;28;2191;-76
2022/07/08 00:14:33;;;;;;;8.50;2.40;;;;;;;17.12;54.06;100606.59;343306;28;1822;-75
2022/07/08 00:14:45;;;;;;;7.78;2.28;;;;;;;17.12;53.79;100601.34;343373;28;1022;-75
2022/07/08 00:14:57;;;;;;;6.75;2.13;;;;;;;17.11;53.44;100598.78;343513;28;1339;-75
2022/07/08 00:15:10;;;;;;;6.18;2.10;;;;;;;17.12;53.57;100598.72;342414;28;2297;-76
2022/07/08 00:15:22;;;;;;;6.40;2.17;;;;;;;17.12;53.53;100603.97;342129;28;2038;-75
2022/07/08 00:15:34;;;;;;;7.38;2.20;;;;;;;17.11;53.59;100606.66;340873;29;1024;-75
2022/07/08 00:15:46;;;;;;;6.85;2.22;;;;;;;17.07;54.13;100603.31;340831;29;1948;-76
2022/07/08 00:15:58;;;;;;;6.57;2.28;;;;;;;17.04;53.92;100608.69;340011;29;1317;-75
2022/07/08 00:16:10;;;;;;;8.73;2.53;;;;;;;16.96;54.08;100605.53;341867;28;932;-76
2022/07/08 00:16:22;;;;;;;9.38;2.67;;;;;;;17.02;54.09;100605.28;340699;28;1801;-75
2022/07/08 00:16:39;;;;;;;9.07;2.60;;;;;;;17.07;53.94;100608.56;341815;28;1696;-75
2022/07/08 00:16:52;;;;;;;9.70;2.50;;;;;;;17.09;54.02;100604.09;340470;28;1636;-75
2022/07/08 00:17:04;;;;;;;10.73;2.53;;;;;;;17.08;53.89;100605.03;341990;28;2096;-75
2022/07/08 00:17:16;;;;;;;11.27;2.72;;;;;;;17.10;54.01;100600.56;340231;29;2102;-75
2022/07/08 00:17:28;;;;;;;10.93;2.70;;;;;;;17.11;53.84;100610.13;341149;28;2122;-75
2022/07/08 00:17:40;;;;;;;9.68;2.63;;;;;;;17.16;54.10;100607.28;343013;28;1332;-75
2022/07/08 00:17:52;;;;;;;6.55;2.30;;;;;;;17.19;53.50;100606.31;343507;28;1035;-76
2022/07/08 00:18:04;;;;;;;5.70;2.22;;;;;;;17.20;53.02;100603.59;343134;28;1334;-75
2022/07/08 00:18:16;;;;;;;6.50;2.30;;;;;;;17.20;53.31;100602.75;343416;28;1043;-75
2022/07/08 00:18:28;;;;;;;6.70;2.30;;;;;;;17.16;53.52;100602.91;342676;28;1583;-76
2022/07/08 00:18:41;;;;;;;5.45;2.20;;;;;;;17.12;53.85;100606.59;343470;28;2031;-75
2022/07/08 00:18:54;;;;;;;5.78;2.25;;;;;;;17.10;53.96;100607.56;343359;28;1230;-75
2022/07/08 00:19:07;;;;;;;6.50;2.30;;;;;;;17.11;53.99;100607.50;343773;28;1411;-76
2022/07/08 00:19:19;;;;;;;6.75;2.28;;;;;;;17.11;54.11;100604.88;343754;28;1072;-75
2022/07/08 00:19:31;;;;;;;7.53;2.20;;;;;;;17.10;53.94;100605.81;342921;28;1551;-75
2022/07/08 00:19:43;;;;;;;6.93;2.20;;;;;;;17.08;53.66;100610.28;344018;28;749;-75
2022/07/08 00:19:56;;;;;;;5.47;2.20;;;;;;;17.10;53.93;100603.19;343288;28;1835;-76
2022/07/08 00:20:09;;;;;;;5.80;2.20;;;;;;;17.12;53.85;100603.09;342655;28;2417;-76
2022/07/08 00:20:22;;;;;;;6.72;2.40;;;;;;;17.14;53.78;100610.00;343784;28;1824;-75
2022/07/08 00:20:34;;;;;;;6.70;2.30;;;;;;;17.09;53.72;100609.34;343501;28;1047;-76
2022/07/08 00:20:46;;;;;;;7.13;2.30;;;;;;;17.13;53.73;100608.28;342188;28;1116;-76
2022/07/08 00:20:58;;;;;;;7.35;2.30;;;;;;;17.11;53.54;100610.13;341231;28;3213;-75
2022/07/08 00:21:11;;;;;;;6.97;2.38;;;;;;;17.12;53.49;100606.59;342489;28;1144;-75
2022/07/08 00:21:23;;;;;;;7.00;2.30;;;;;;;16.98;53.96;100608.94;341342;28;2195;-75
2022/07/08 00:21:35;;;;;;;7.80;2.33;;;;;;;17.03;53.86;100607.00;341778;28;1652;-75
2022/07/08 00:21:51;;;;;;;8.93;2.30;;;;;;;17.06;53.64;100606.00;341942;28;2073;-76
2022/07/08 00:22:03;;;;;;;7.78;2.10;;;;;;;17.12;53.72;100610.97;341990;28;1309;-76
2022/07/08 00:22:15;;;;;;;7.20;2.10;;;;;;;17.16;54.03;100602.03;341932;28;1024;-75
2022/07/08 00:22:27;;;;;;;8.00;2.22;;;;;;;17.13;53.59;100604.81;341615;28;2386;-76
2022/07/08 00:22:39;;;;;;;8.18;2.50;;;;;;;17.16;53.44;100608.16;343293;28;1879;-75
2022/07/08 00:22:51;;;;;;;6.22;2.30;;;;;;;17.15;53.92;100611.69;342234;28;1026;-76
2022/07/08 00:23:03;;;;;;;6.45;2.28;;;;;;;17.20;53.61;100605.38;342377;28;1810;-75
2022/07/08 00:23:15;;;;;;;6.55;2.17;;;;;;;17.22;53.75;100611.41;342945;28;2085;-76
2022/07/08 00:23:27;;;;;;;6.45;2.30;;;;;;;17.25;54.00;100606.03;343542;28;1028;-75
2022/07/08 00:23:39;;;;;;;6.47;2.47;;;;;;;17.24;53.97;100604.31;343448;28;1129;-76
2022/07/08 00:23:51;;;;;;;5.97;2.28;;;;;;;17.24;54.08;100605.16;342335;28;1490;-75
2022/07/08 00:24:04;;;;;;;5.07;2.22;;;;;;;17.27;53.57;100598.94;342130;28;1349;-75
2022/07/08 00:24:17;;;;;;;5.82;2.20;;;;;;;17.24;53.21;100605.16;342513;28;1047;-75
2022/07/08 00:24:29;;;;;;;6.13;2.25;;;;;;;17.25;53.11;100613.94;342483;28;2218;-76
2022/07/08 00:24:41;;;;;;;6.95;2.20;;;;;;;17.25;53.03;100606.03;343398;28;1998;-76
2022/07/08 00:24:53;;;;;;;7.15;2.40;;;;;;;17.25;53.41;100600.78;342597;28;1956;-76
2022/07/08 00:25:05;;;;;;;8.98;2.58;;;;;;;17.24;53.57;100609.56;343155;28;1305;-76
2022/07/08 00:25:17;;;;;;;9.20;2.70;;;;;;;17.26;54.05;100613.00;343191;28;1076;-75
2022/07/08 00:25:29;;;;;;;8.55;2.63;;;;;;;17.28;53.49;100605.88;342072;28;2008;-75
2022/07/08 00:25:41;;;;;;;7.15;2.58;;;;;;;17.27;53.25;100609.47;342122;28;2043;-75
2022/07/08 00:25:53;;;;;;;6.63;2.40;;;;;;;17.28;52.85;100605.88;342117;28;1104;-75
2022/07/08 00:26:06;;;;;;;5.97;2.30;;;;;;;17.28;52.91;100605.88;341070;28;2185;-75
2022/07/08 00:26:18;;;;;;;5.78;2.30;;;;;;;17.29;53.00;100607.59;341294;28;1577;-74
2022/07/08 00:26:30;;;;;;;6.88;2.35;;;;;;;17.27;52.81;100609.47;340085;29;1196;-75
2022/07/08 00:26:43;;;;;;;8.68;2.35;;;;;;;17.19;52.72;100609.78;341686;28;1079;-74
2022/07/08 00:26:55;;;;;;;10.95;2.30;;;;;;;17.21;52.91;100609.72;341923;28;1309;-76
2022/07/08 00:27:07;;;;;;;10.23;2.22;;;;;;;17.15;53.24;100611.69;342081;28;1179;-75
2022/07/08 00:27:19;;;;;;;7.50;2.25;;;;;;;17.14;53.24;100604.75;341605;28;1708;-76
2022/07/08 00:27:31;;;;;;;8.98;2.33;;;;;;;17.13;53.24;100613.53;341668;28;2036;-75
2022/07/08 00:27:43;;;;;;;10.13;2.38;;;;;;;17.10;53.48;100618.94;342413;28;2248;-75
2022/07/08 00:27:55;;;;;;;8.80;2.20;;;;;;;17.10;53.23;100616.31;343295;28;1152;-75
2022/07/08 00:28:07;;;;;;;7.55;2.28;;;;;;;17.10;53.32;100613.69;343452;28;1318;-75
2022/07/08 00:28:19;;;;;;;7.82;2.28;;;;;;;17.10;53.68;100613.69;343271;28;1043;-76
2022/07/08 00:28:31;;;;;;;7.78;2.35;;;;;;;17.10;53.94;100608.44;342287;28;2226;-76
2022/07/08 00:28:43;;;;;;;7.78;2.35;;;;;;;17.12;53.66;100616.22;343449;28;2863;-76
2022/07/08 00:28:56;;;;;;;7.22;2.28;;;;;;;17.14;53.67;100620.50;343818;28;1308;-75
2022/07/08 00:29:08;;;;;;;6.13;2.10;;;;;;;17.15;53.40;100614.31;342955;28;2335;-75
2022/07/08 00:29:20;;;;;;;5.50;1.98;;;;;;;17.16;54.29;100613.41;344417;28;1985;-75
2022/07/08 00:29:32;;;;;;;7.00;2.17;;;;;;;17.17;54.40;100619.53;344949;28;1063;-75
2022/07/08 00:29:44;;;;;;;7.72;2.30;;;;;;;17.19;54.64;100619.47;344654;28;1193;-75
2022/07/08 00:29:56;;;;;;;6.80;2.15;;;;;;;17.17;53.82;100615.09;344573;28;1279;-75
2022/07/08 00:30:09;;;;;;;5.70;2.30;;;;;;;17.16;54.01;100616.03;343914;28;2143;-75
2022/07/08 00:30:21;;;;;;;6.63;2.30;;;;;;;17.18;53.53;100615.94;343233;28;2020;-75
2022/07/08 00:30:33;;;;;;;5.22;2.00;;;;;;;17.18;52.96;100621.22;342273;28;1157;-76
2022/07/08 00:30:45;;;;;;;4.78;2.10;;;;;;;17.22;53.15;100627.19;343332;28;1204;-75
2022/07/08 00:30:57;;;;;;;5.28;2.20;;;;;;;17.23;53.14;100619.25;341508;28;1998;-76
2022/07/08 00:31:09;;;;;;;5.72;2.15;;;;;;;17.23;53.02;100624.50;341823;28;1917;-75
2022/07/08 00:31:22;;;;;;;4.65;1.98;;;;;;;17.24;53.16;100626.19;342344;28;1281;-75
2022/07/08 00:31:34;;;;;;;4.43;1.80;;;;;;;17.26;53.16;100623.50;341979;28;1157;-75
2022/07/08 00:31:46;;;;;;;5.35;2.10;;;;;;;17.25;53.55;100620.03;342490;28;1317;-75
2022/07/08 00:31:58;;;;;;;5.82;2.20;;;;;;;17.23;53.83;100618.41;342183;28;1600;-75
2022/07/08 00:32:11;;;;;;;6.40;2.30;;;;;;;17.24;54.15;100620.09;341654;28;1095;-76
2022/07/08 00:32:23;;;;;;;7.90;2.30;;;;;;;17.18;54.25;100621.22;341611;28;2238;-76
2022/07/08 00:32:36;;;;;;;8.05;2.40;;;;;;;17.19;54.02;100622.94;342469;28;2097;-75
2022/07/08 00:32:48;;;;;;;7.03;2.30;;;;;;;17.18;54.11;100623.84;343459;28;1258;-75
2022/07/08 00:33:00;;;;;;;8.73;2.40;;;;;;;17.07;53.71;100624.31;341280;28;1707;-74
2022/07/08 00:33:12;;;;;;;11.05;2.38;;;;;;;17.11;53.63;100622.41;342165;28;1040;-75
2022/07/08 00:33:24;;;;;;;10.00;2.35;;;;;;;17.15;53.37;100619.56;341579;28;1694;-75
2022/07/08 00:33:36;;;;;;;7.72;2.45;;;;;;;17.17;53.43;100617.75;342159;28;2177;-75
2022/07/08 00:33:48;;;;;;;6.38;2.13;;;;;;;17.18;53.32;100621.22;342161;28;1059;-75
2022/07/08 00:34:00;;;;;;;7.07;2.05;;;;;;;17.16;53.40;100618.66;340710;29;1157;-75
2022/07/08 00:34:13;;;;;;;9.15;2.20;;;;;;;17.16;53.55;100621.31;341147;28;1162;-76
2022/07/08 00:34:25;;;;;;;8.85;2.30;;;;;;;17.15;53.71;100622.22;341302;28;2207;-76
2022/07/08 00:34:37;;;;;;;7.75;2.30;;;;;;;17.12;53.86;100622.34;342470;28;1895;-76
2022/07/08 00:34:50;;;;;;;8.02;2.20;;;;;;;17.14;53.74;100620.50;340903;29;1034;-75
2022/07/08 00:35:02;;;;;;;8.32;2.20;;;;;;;17.16;53.85;100623.94;341662;28;1343;-75
2022/07/08 00:35:15;;;;;;;8.00;2.20;;;;;;;17.16;53.89;100618.66;342531;28;1051;-76
2022/07/08 00:35:27;;;;;;;6.40;2.10;;;;;;;17.19;53.99;100627.34;341762;28;3155;-76
2022/07/08 00:35:39;;;;;;;6.85;2.10;;;;;;;17.11;54.78;100620.63;341955;28;2000;-74
2022/07/08 00:35:51;;;;;;;6.95;2.17;;;;;;;17.13;54.07;100620.56;342412;28;841;-76
2022/07/08 00:36:04;;;;;;;6.57;2.10;;;;;;;17.13;54.24;100621.41;342039;28;1488;-76
2022/07/08 00:36:16;;;;;;;6.72;2.30;;;;;;;17.10;53.92;100624.19;341893;28;1111;-76
2022/07/08 00:36:28;;;;;;;7.07;2.30;;;;;;;17.08;53.76;100618.16;341430;28;2060;-75
2022/07/08 00:36:40;;;;;;;7.50;2.40;;;;;;;17.08;53.91;100619.91;341778;28;2212;-76
2022/07/08 00:36:52;;;;;;;8.77;2.30;;;;;;;17.02;53.58;100621.03;342470;28;1749;-75
2022/07/08 00:37:04;;;;;;;7.72;2.30;;;;;;;17.04;53.57;100621.81;343248;28;1387;-75
2022/07/08 00:37:16;;;;;;;6.57;2.15;;;;;;;17.05;53.60;100626.16;343559;28;1059;-76
2022/07/08 00:37:28;;;;;;;5.50;2.08;;;;;;;17.06;53.18;100622.59;342893;28;2249;-75
2022/07/08 00:37:40;;;;;;;6.65;2.30;;;;;;;17.01;53.64;100624.59;343752;28;1992;-75
2022/07/08 00:37:53;;;;;;;8.15;2.42;;;;;;;17.00;53.70;100622.88;343845;28;1106;-75
2022/07/08 00:38:05;;;;;;;8.45;2.25;;;;;;;16.93;53.70;100617.03;343649;28;1337;-75
2022/07/08 00:38:17;;;;;;;8.63;2.30;;;;;;;16.92;53.74;100620.59;343077;28;1345;-75
2022/07/08 00:38:29;;;;;;;8.20;2.30;;;;;;;16.93;53.91;100622.28;342717;28;2167;-75
2022/07/08 00:38:42;;;;;;;7.30;2.20;;;;;;;16.96;53.83;100627.44;342069;28;1662;-75
2022/07/08 00:38:54;;;;;;;6.85;2.30;;;;;;;16.98;53.83;100627.34;341919;28;1399;-75
2022/07/08 00:39:06;;;;;;;6.50;2.20;;;;;;;16.98;53.95;100619.47;340924;29;1111;-75
2022/07/08 00:39:18;;;;;;;6.43;2.05;;;;;;;17.01;54.05;100623.75;340971;29;1271;-75
2022/07/08 00:39:30;;;;;;;6.45;2.13;;;;;;;16.99;54.70;100621.19;342125;28;1807;-75
2022/07/08 00:39:42;;;;;;;5.95;2.20;;;;;;;17.02;53.93;100626.28;342406;28;1961;-75
2022/07/08 00:39:54;;;;;;;7.25;2.28;;;;;;;16.97;53.78;100618.63;342360;28;1088;-76
2022/07/08 00:40:07;;;;;;;7.60;2.22;;;;;;;17.01;53.47;100623.75;341515;28;2298;-75
2022/07/08 00:40:19;;;;;;;7.55;2.30;;;;;;;16.97;53.62;100623.88;341058;28;2183;-76
2022/07/08 00:40:32;;;;;;;7.30;2.25;;;;;;;16.95;53.74;100624.84;342267;28;1015;-76
2022/07/08 00:40:44;;;;;;;6.95;2.25;;;;;;;16.87;54.13;100622.56;341990;28;1068;-75
2022/07/08 00:40:56;;;;;;;8.50;2.30;;;;;;;16.90;53.83;100624.19;342047;28;1274;-75
2022/07/08 00:41:08;;;;;;;8.05;2.28;;;;;;;16.88;54.16;100626.03;341433;28;1949;-75
2022/07/08 00:41:20;;;;;;;7.28;2.22;;;;;;;16.89;54.02;100630.38;341992;28;1252;-75
2022/07/08 00:41:33;;;;;;;6.55;2.20;;;;;;;16.90;54.38;100629.44;342063;28;1554;-75
2022/07/08 00:41:44;;;;;;;6.85;2.20;;;;;;;16.89;54.59;100633.84;342479;28;1649;-75
2022/07/08 00:41:57;;;;;;;7.80;2.25;;;;;;;16.90;54.48;100629.44;343475;28;1282;-76
2022/07/08 00:42:09;;;;;;;9.10;2.50;;;;;;;16.92;54.82;100627.59;343259;28;1026;-75
2022/07/08 00:42:22;;;;;;;9.13;2.50;;;;;;;16.93;55.15;100630.19;342959;28;2100;-75
2022/07/08 00:42:34;;;;;;;8.35;2.40;;;;;;;16.94;54.55;100629.28;342189;28;2108;-75
2022/07/08 00:42:49;;;;;;;9.27;2.47;;;;;;;16.94;54.59;100629.28;342875;28;1723;-75
2022/07/08 00:43:01;;;;;;;7.95;2.40;;;;;;;16.96;54.26;100627.44;343069;28;1745;-76
2022/07/08 00:43:35;;;;;;;8.57;2.35;;;;;;;16.92;54.14;100635.47;343105;28;1728;-76
2022/07/08 00:43:48;;;;;;;7.47;2.20;;;;;;;16.92;54.24;100630.22;342839;28;1660;-77
2022/07/08 00:44:00;;;;;;;7.88;2.33;;;;;;;16.95;54.06;100624.84;342663;28;1662;-75
2022/07/08 00:44:12;;;;;;;8.52;2.50;;;;;;;16.98;53.91;100637.84;343589;28;1086;-76
2022/07/08 00:44:24;;;;;;;7.03;2.45;;;;;;;16.99;53.67;100625.59;342624;28;4967;-75
2022/07/08 00:44:36;;;;;;;6.65;2.17;;;;;;;17.00;53.88;100627.28;342892;28;1885;-75
2022/07/08 00:44:48;;;;;;;7.95;2.17;;;;;;;16.95;54.15;100624.84;342379;28;1068;-75
2022/07/08 00:45:00;;;;;;;8.45;2.30;;;;;;;16.93;53.97;100626.69;342092;28;1288;-75
2022/07/08 00:45:12;;;;;;;7.68;2.47;;;;;;;16.91;54.43;100631.16;341240;28;1754;-75
2022/07/08 00:45:24;;;;;;;7.22;2.38;;;;;;;16.89;54.55;100625.13;341920;28;2034;-75
2022/07/08 00:45:36;;;;;;;8.90;2.40;;;;;;;16.87;54.85;100632.22;342152;28;1052;-75
2022/07/08 00:45:48;;;;;;;8.32;2.60;;;;;;;16.86;55.14;100630.50;341874;28;1064;-75
2022/07/08 00:46:01;;;;;;;8.00;2.60;;;;;;;16.83;55.03;100630.66;341585;28;1292;-75
2022/07/08 00:46:15;;;;;;;6.75;2.50;;;;;;;16.78;55.11;100628.16;342256;28;1099;-76
2022/07/08 00:46:27;;;;;;;6.15;2.15;;;;;;;16.78;55.55;100629.03;341361;28;2394;-76
2022/07/08 00:46:39;;;;;;;6.90;2.10;;;;;;;16.78;55.34;100629.03;343206;28;1901;-76
2022/07/08 00:46:51;;;;;;;7.28;2.30;;;;;;;16.81;55.12;100629.81;344103;28;1218;-75
2022/07/08 00:47:04;;;;;;;8.77;2.50;;;;;;;16.80;54.81;100622.84;343830;28;1730;-75
2022/07/08 00:47:16;;;;;;;9.23;2.33;;;;;;;16.83;54.85;100628.03;343489;28;1075;-76
2022/07/08 00:47:28;;;;;;;7.68;2.28;;;;;;;16.83;54.67;100628.88;343216;28;2248;-77
2022/07/08 00:47:39;;;;;;;6.90;2.22;;;;;;;16.87;54.49;100626.97;344073;28;1806;-76
2022/07/08 00:47:52;;;;;;;6.03;2.20;;;;;;;16.88;54.28;100629.53;344876;28;1301;-75
2022/07/08 00:48:04;;;;;;;5.53;2.10;;;;;;;16.88;54.27;100626.91;344538;28;1342;-76
2022/07/08 00:48:16;;;;;;;5.88;2.30;;;;;;;16.88;54.67;100623.41;344662;28;1059;-76
2022/07/08 00:48:28;;;;;;;7.38;2.47;;;;;;;16.87;54.33;100626.97;343863;28;2278;-76
2022/07/08 00:48:41;;;;;;;8.65;2.47;;;;;;;16.86;54.43;100626.13;343684;28;1933;-76
2022/07/08 00:48:53;;;;;;;7.85;2.22;;;;;;;16.86;54.67;100628.75;343745;28;1150;-75
2022/07/08 00:49:05;;;;;;;5.70;2.30;;;;;;;16.87;54.65;100624.34;343362;28;1276;-75
2022/07/08 00:49:22;;;;;;;6.88;2.22;;;;;;;16.76;54.67;100625.63;343641;28;1104;-75
2022/07/08 00:49:34;;;;;;;7.43;2.25;;;;;;;16.75;54.41;100629.16;343537;28;1918;-75
2022/07/08 00:49:51;;;;;;;6.88;2.50;;;;;;;16.73;54.61;100625.75;343632;28;765;-75
2022/07/08 00:50:04;;;;;;;8.10;2.30;;;;;;;16.76;54.72;100635.25;343414;28;1140;-75
2022/07/08 00:50:16;;;;;;;8.82;2.20;;;;;;;16.78;55.13;100623.78;342912;28;1839;-76
2022/07/08 00:50:28;;;;;;;8.48;2.10;;;;;;;16.81;54.97;100624.56;342952;28;2236;-76
2022/07/08 00:50:40;;;;;;;8.80;2.20;;;;;;;16.83;54.56;100625.41;342683;28;1850;-75
2022/07/08 00:50:52;;;;;;;7.53;2.20;;;;;;;16.84;54.94;100621.84;342052;28;1331;-76
2022/07/08 00:51:10;;;;;;;6.93;2.22;;;;;;;16.81;54.80;100624.56;342376;28;2073;-76
2022/07/08 00:51:22;;;;;;;7.70;2.40;;;;;;;16.82;55.23;100629.81;343316;28;1936;-76
2022/07/08 00:51:34;;;;;;;7.78;2.38;;;;;;;16.84;55.13;100624.47;343839;28;965;-75
2022/07/08 00:51:47;;;;;;;6.88;2.33;;;;;;;16.86;55.14;100620.00;343335;28;1872;-76
2022/07/08 00:51:59;;;;;;;7.72;2.38;;;;;;;16.86;54.67;100625.25;343844;28;1293;-76
2022/07/08 00:52:13;;;;;;;7.80;2.45;;;;;;;16.86;54.66;100617.38;343089;28;1266;-76
2022/07/08 00:52:25;;;;;;;7.28;2.30;;;;;;;16.88;54.67;100618.16;342187;28;2084;-76
2022/07/08 00:52:38;;;;;;;6.68;2.00;;;;;;;16.89;55.24;100625.13;343270;28;1423;-75
2022/07/08 00:52:50;;;;;;;4.93;2.10;;;;;;;16.90;54.87;100629.44;343533;28;1126;-76
2022/07/08 00:53:02;;;;;;;5.15;2.30;;;;;;;16.87;54.74;100624.34;342713;28;1644;-75
2022/07/08 00:53:15;;;;;;;6.78;2.45;;;;;;;16.86;55.23;100627.88;343549;28;1088;-76
2022/07/08 00:53:29;;;;;;;7.60;2.28;;;;;;;16.88;55.42;100623.41;341844;28;2331;-76
2022/07/08 00:53:46;;;;;;;7.68;2.10;;;;;;;16.89;55.38;100627.75;343740;28;1269;-75
2022/07/08 00:53:59;;;;;;;6.55;2.15;;;;;;;16.90;55.04;100621.56;342016;28;1627;-75
2022/07/08 00:54:14;;;;;;;7.57;2.30;;;;;;;16.90;55.00;100624.19;342593;28;2307;-76
2022/07/08 00:54:26;;;;;;;9.35;2.28;;;;;;;16.92;55.03;100624.97;342165;28;2061;-76
2022/07/08 00:54:38;;;;;;;7.70;2.22;;;;;;;16.93;55.29;100626.69;342203;28;1124;-75
2022/07/08 00:54:51;;;;;;;5.80;2.17;;;;;;;16.93;55.05;100627.53;342250;28;1148;-76
2022/07/08 00:55:04;;;;;;;5.22;2.25;;;;;;;16.92;54.44;100628.47;343108;28;1266;-76
2022/07/08 00:55:17;;;;;;;6.97;2.15;;;;;;;16.94;54.36;100628.38;343387;28;1270;-75
2022/07/08 00:55:29;;;;;;;6.78;2.20;;;;;;;16.94;54.47;100628.38;340698;28;2196;-75
2022/07/08 00:55:41;;;;;;;6.50;2.22;;;;;;;16.92;54.58;100619.72;341298;28;1360;-75
2022/07/08 00:55:53;;;;;;;6.18;2.17;;;;;;;16.92;54.65;100624.97;340907;29;1070;-76
2022/07/08 00:56:07;;;;;;;6.75;2.10;;;;;;;16.91;54.84;100628.53;341763;28;1640;-76
2022/07/08 00:56:20;;;;;;;6.70;2.30;;;;;;;16.91;54.86;100633.78;341864;28;1750;-75
2022/07/08 00:56:33;;;;;;;5.53;2.25;;;;;;;16.93;55.01;100626.69;341443;28;1745;-76
2022/07/08 00:56:45;;;;;;;6.35;2.30;;;;;;;16.92;55.31;100624.97;341993;28;2022;-76
2022/07/08 00:56:58;;;;;;;6.50;2.33;;;;;;;16.92;55.31;100624.97;341922;28;1250;-75
2022/07/08 00:57:11;;;;;;;6.78;2.28;;;;;;;16.85;54.93;100627.03;341485;28;2582;-75
2022/07/08 00:57:25;;;;;;;8.13;2.45;;;;;;;16.87;55.70;100626.97;340103;29;2245;-77
2022/07/08 00:57:39;;;;;;;9.40;2.60;;;;;;;16.85;55.65;100628.81;341848;28;1961;-76
2022/07/08 00:57:51;;;;;;;8.13;2.43;;;;;;;16.86;55.50;100625.25;341024;29;1210;-75
2022/07/08 00:58:03;;;;;;;6.20;2.33;;;;;;;16.87;55.22;100629.59;339419;29;1805;-75
2022/07/08 00:58:15;;;;;;;5.20;2.25;;;;;;;16.87;54.98;100626.97;338552;29;1547;-75
2022/07/08 00:58:28;;;;;;;5.05;2.03;;;;;;;16.88;54.89;100629.53;340707;28;2152;-75
2022/07/08 00:58:42;;;;;;;5.50;2.00;;;;;;;16.88;55.30;100623.41;340659;29;1965;-75
2022/07/08 00:58:55;;;;;;;5.63;2.20;;;;;;;16.88;55.08;100626.91;341505;28;1196;-76
2022/07/08 00:59:08;;;;;;;6.07;2.33;;;;;;;16.90;55.50;100626.81;340301;29;1284;-76
2022/07/08 00:59:20;;;;;;;5.72;2.30;;;;;;;16.90;55.73;100632.06;340936;29;1110;-76